الصفحة الرئيسية
METAR-TAF:

METAR-TAF

مطار :

وينيبيغ, مانيتوبا, كندا

دائرة عرض: 49-54N, خط طول: 097-14W, ارتفاع: 239 متر

مراقبة الطقس الحالي

تاريخ ووقت الإصدار 51 دقيقة قبل الساعة 05:00UTC
ريح 18 عقدة من الجنوب تتزايد حتى 25 عقدة
درجة الحرارة 4°درجة مئوية
الرطوبة 70%
ضغط 1018 hPa
الرؤية: 24.1 كم
سماء صافية

METAR: CYWG 180500Z 19018G25KT 15SM SKC 04/M01 A3006 RMK SLP193

زمن: 00:51 (05:51 UTC)

توقعات

تاريخ ووقت الإصدار 13 دقيقة قبل الساعة 05:38UTC
التوقعات صالحة من18 الساعة 06 UTC إلى 19 الساعة 06 UTC
ريح 15 عقدة من الجنوب/الجنوب الغربي تتزايد حتى 25 عقدة
الرؤية: 10 كم
سماء صافية
أصبح
من 18 الساعة 16 UTC إلى 18 الساعة 18 UTC
ريح 15 عقدة من الغرب/الجنوب الغربي تتزايد حتى 25 عقدة
أصبح
من 19 الساعة 02 UTC إلى 19 الساعة 04 UTC
ريح 6 عقدة من الغرب/الجنوب الغربي

TAF: CYWG 180538Z 1806/1906 20015G25KT P6SM SKC BECMG 1816/1818 24015G25KT BECMG 1902/1904 24006KT RMK NXT FCST BY 181200Z

أرصاد الطقس والتوقعات من أكثر من 4000 مطار (تقارير الطقس للمطار METAR والتنبؤ بالطقس بالمطارTAF).

المحطات المتاحة هي النقط الصفراء والحمراء على الخريطة.

حرك المؤشر فوق النقطة لمعرفة اسم المحطة.

ثم انقر لمعرفة أرصاد وتوقعات الطقس.

لتغيير الخارطة: اضغط على الأزرار الخضراء مع رمز الصليب الأسود للتكبير. على الزر الأخضر مع شرطة للتصغير، أو على الأسهم الخضراء للخرائط المجاورة.


METAR-TAF: